createdAt,value
2024-02-17T00:01:15.238Z,15.60
2024-02-17T00:05:17.198Z,14.10
2024-02-17T00:09:19.119Z,16.73
2024-02-17T00:13:20.911Z,16.40
2024-02-17T00:17:22.667Z,15.93
2024-02-17T00:21:24.444Z,15.38
2024-02-17T00:25:26.170Z,17.55
2024-02-17T00:29:28.042Z,15.73
2024-02-17T00:33:29.998Z,18.25
2024-02-17T00:37:32.734Z,15.80
2024-02-17T00:41:34.588Z,14.38
2024-02-17T00:45:36.340Z,14.60
2024-02-17T00:49:38.286Z,14.73
2024-02-17T00:53:43.703Z,21.52
2024-02-17T00:57:45.759Z,15.80
2024-02-17T01:01:49.846Z,17.08
2024-02-17T01:05:52.432Z,16.83
2024-02-17T01:09:57.048Z,13.05
2024-02-17T01:13:58.938Z,15.23
2024-02-17T01:18:00.801Z,17.63
2024-02-17T01:22:02.632Z,18.33
2024-02-17T01:26:04.614Z,16.10
2024-02-17T01:30:07.142Z,17.58
2024-02-17T01:34:09.454Z,16.38
2024-02-17T01:38:11.288Z,17.83
2024-02-17T01:42:13.169Z,16.77
2024-02-17T01:46:14.997Z,14.73
2024-02-17T01:50:16.893Z,14.82
2024-02-17T01:54:19.324Z,16.17
2024-02-17T01:58:21.830Z,15.10
2024-02-17T02:02:24.130Z,14.80
2024-02-17T02:06:25.976Z,14.15
2024-02-17T02:10:27.847Z,17.23
2024-02-17T02:14:31.447Z,18.20
2024-02-17T02:18:33.416Z,14.65
2024-02-17T02:22:36.846Z,13.88
2024-02-17T02:26:38.650Z,13.35
2024-02-17T02:30:41.528Z,13.25
2024-02-17T02:34:43.437Z,12.05
2024-02-17T02:38:47.975Z,11.20
2024-02-17T02:42:49.806Z,14.45
2024-02-17T02:46:51.606Z,9.18
2024-02-17T02:50:53.329Z,10.95
2024-02-17T02:54:55.130Z,12.13
2024-02-17T02:58:56.924Z,10.95
2024-02-17T03:02:58.708Z,10.45
2024-02-17T03:07:00.554Z,10.60
2024-02-17T03:11:03.087Z,9.13
2024-02-17T03:15:05.740Z,14.18
2024-02-17T03:19:08.183Z,10.63
2024-02-17T03:23:09.939Z,9.93
2024-02-17T03:27:11.657Z,10.40
2024-02-17T03:31:13.468Z,9.65
2024-02-17T03:35:15.519Z,12.65
2024-02-17T03:39:20.395Z,11.18
2024-02-17T03:43:22.779Z,11.75
2024-02-17T03:47:24.565Z,17.25
2024-02-17T03:51:26.636Z,12.90
2024-02-17T03:55:28.345Z,14.95
2024-02-17T03:59:30.059Z,12.93
2024-02-17T04:03:32.576Z,14.07
2024-02-17T04:07:34.508Z,12.77
2024-02-17T04:11:38.512Z,15.43
2024-02-17T04:15:40.650Z,14.50
2024-02-17T04:19:42.820Z,13.95
2024-02-17T04:23:45.059Z,19.23
2024-02-17T04:27:46.901Z,12.98
2024-02-17T04:31:48.758Z,14.35
2024-02-17T04:35:52.629Z,12.05
2024-02-17T04:39:55.001Z,14.07
2024-02-17T04:43:56.883Z,15.13
2024-02-17T04:47:58.661Z,14.75
2024-02-17T04:52:00.425Z,16.00
2024-02-17T04:56:02.185Z,15.52
2024-02-17T05:00:07.102Z,18.13
2024-02-17T05:04:09.372Z,12.73
2024-02-17T05:08:11.594Z,13.30
2024-02-17T05:12:13.487Z,13.75
2024-02-17T05:16:15.393Z,16.27
2024-02-17T05:20:17.401Z,16.67
2024-02-17T05:24:19.169Z,14.27
2024-02-17T05:28:21.307Z,16.30
2024-02-17T05:32:23.067Z,15.82
2024-02-17T05:36:25.392Z,14.60
2024-02-17T05:40:27.171Z,12.48
2024-02-17T05:44:29.415Z,13.65
2024-02-17T05:48:31.345Z,14.73
2024-02-17T05:52:34.104Z,12.27
2024-02-17T05:56:36.031Z,12.77
2024-02-17T06:00:37.916Z,12.95
2024-02-17T06:04:39.864Z,13.98
2024-02-17T06:08:43.081Z,15.30
2024-02-17T06:12:44.905Z,13.27
2024-02-17T06:16:46.654Z,11.30
2024-02-17T06:21:07.018Z,13.00
2024-02-17T06:25:09.437Z,13.18
2024-02-17T06:29:23.686Z,12.48
2024-02-17T06:33:25.627Z,13.32
2024-02-17T06:37:27.503Z,13.45
2024-02-17T06:41:30.012Z,13.63
2024-02-17T06:45:31.989Z,13.18
2024-02-17T06:49:33.901Z,11.48
2024-02-17T06:53:35.794Z,11.48
2024-02-17T06:57:38.704Z,14.15
2024-02-17T07:01:40.620Z,13.60
2024-02-17T07:05:42.630Z,12.30
2024-02-17T07:09:44.704Z,12.48
2024-02-17T07:13:46.626Z,12.15
2024-02-17T07:17:49.426Z,16.75
2024-02-17T07:21:51.288Z,12.38
2024-02-17T07:25:53.138Z,12.68
2024-02-17T07:29:55.338Z,12.25
2024-02-17T07:33:59.110Z,15.80
2024-02-17T07:38:00.932Z,15.90
2024-02-17T07:42:03.364Z,16.50
2024-02-17T07:46:05.501Z,13.55
2024-02-17T07:50:09.008Z,12.60
2024-02-17T07:59:33.512Z,12.45
2024-02-17T08:03:35.393Z,13.05
2024-02-17T08:07:37.272Z,11.02
2024-02-17T08:11:39.112Z,17.02
2024-02-17T08:15:41.032Z,12.23
2024-02-17T08:19:42.918Z,15.43
2024-02-17T08:23:44.879Z,12.80
2024-02-17T08:27:46.815Z,12.93
2024-02-17T08:31:52.088Z,14.18
2024-02-17T08:35:54.364Z,13.38
2024-02-17T08:39:56.231Z,13.00
2024-02-17T08:43:57.988Z,13.15
2024-02-17T08:47:59.804Z,14.50
2024-02-17T08:52:02.442Z,13.57
2024-02-17T08:56:04.549Z,14.57
2024-02-17T09:00:07.092Z,16.08
2024-02-17T09:04:09.261Z,11.63
2024-02-17T09:08:11.070Z,16.60
2024-02-17T09:13:05.907Z,17.70
2024-02-17T09:17:07.737Z,16.00
2024-02-17T09:21:10.129Z,15.18
2024-02-17T09:25:11.925Z,17.15
2024-02-17T09:29:13.839Z,15.52
2024-02-17T09:33:15.889Z,18.77
2024-02-17T09:37:17.743Z,15.60
2024-02-17T09:41:19.618Z,17.33
2024-02-17T09:45:22.363Z,16.63
2024-02-17T09:49:28.103Z,16.25
2024-02-17T09:53:32.873Z,18.02
2024-02-17T09:57:42.499Z,19.30
2024-02-17T10:01:49.379Z,16.67
2024-02-17T10:05:51.691Z,11.73
2024-02-17T10:09:53.491Z,13.68
2024-02-17T10:14:03.655Z,13.90
2024-02-17T10:18:05.593Z,13.32
2024-02-17T10:22:07.517Z,14.95
2024-02-17T10:26:09.297Z,13.30
2024-02-17T10:30:17.621Z,13.23
2024-02-17T10:34:19.782Z,14.48
2024-02-17T10:38:23.593Z,15.20
2024-02-17T10:42:25.478Z,18.77
2024-02-17T10:46:29.194Z,16.40
2024-02-17T10:50:47.677Z,14.98
2024-02-17T10:55:07.475Z,16.10
2024-02-17T10:59:10.160Z,15.05
2024-02-17T11:03:14.767Z,17.30
2024-02-17T11:07:18.134Z,13.55
2024-02-17T11:11:25.113Z,14.95
2024-02-17T11:15:27.216Z,12.25
2024-02-17T11:19:35.996Z,17.25
2024-02-17T11:23:43.996Z,19.17
2024-02-17T11:27:45.977Z,14.32
2024-02-17T11:31:49.190Z,15.93
2024-02-17T11:35:51.722Z,15.45
2024-02-17T11:39:53.854Z,15.70
2024-02-17T11:43:56.667Z,17.35
2024-02-17T11:47:58.576Z,19.55
2024-02-17T11:52:01.255Z,18.17
2024-02-17T11:56:03.610Z,17.48
2024-02-17T12:00:09.386Z,18.42
2024-02-17T12:04:12.476Z,17.25
2024-02-17T12:08:14.827Z,19.25
2024-02-17T12:12:16.834Z,18.27
2024-02-17T12:21:42.417Z,17.30
2024-02-17T12:25:45.305Z,18.00
2024-02-17T12:29:51.483Z,20.73
2024-02-17T12:33:54.012Z,21.70
2024-02-17T12:37:57.345Z,19.75
2024-02-17T12:42:05.617Z,19.35
2024-02-17T12:46:37.826Z,17.35
2024-02-17T12:50:42.062Z,15.13
2024-02-17T12:54:44.923Z,15.18
2024-02-17T12:58:46.989Z,16.95
2024-02-17T13:02:48.806Z,15.75
2024-02-17T13:06:50.704Z,15.88
2024-02-17T13:10:54.006Z,22.13
2024-02-17T13:14:55.816Z,21.90
2024-02-17T13:19:00.003Z,19.42
2024-02-17T13:23:33.450Z,18.95
2024-02-17T13:27:41.322Z,19.25
2024-02-17T13:31:43.793Z,19.23
2024-02-17T13:35:45.861Z,20.42
2024-02-17T13:39:47.711Z,18.02
2024-02-17T13:43:50.227Z,17.58
2024-02-17T13:47:52.191Z,19.90
2024-02-17T13:51:54.058Z,14.75
2024-02-17T13:55:56.081Z,18.50
2024-02-17T13:59:59.486Z,22.35
2024-02-17T14:04:42.129Z,14.48
2024-02-17T14:13:26.642Z,14.55
2024-02-17T14:17:28.744Z,14.20
2024-02-17T14:21:31.029Z,18.70
2024-02-17T14:25:34.634Z,14.27
2024-02-17T14:29:45.378Z,14.95
2024-02-17T14:33:47.345Z,16.63
2024-02-17T14:37:49.500Z,13.80
2024-02-17T14:41:51.732Z,12.00
2024-02-17T14:45:53.605Z,14.00
2024-02-17T14:49:55.541Z,15.32
2024-02-17T14:53:57.617Z,11.77
2024-02-17T14:57:59.626Z,11.88
2024-02-17T15:02:02.179Z,12.00
2024-02-17T15:06:04.334Z,12.90
2024-02-17T15:10:08.564Z,10.63
2024-02-17T15:14:10.402Z,9.38
2024-02-17T15:18:12.197Z,11.07
2024-02-17T15:22:13.900Z,10.80
2024-02-17T15:26:16.071Z,15.77
2024-02-17T15:30:18.265Z,12.10
2024-02-17T15:34:21.670Z,13.65
2024-02-17T15:38:26.129Z,13.23
2024-02-17T15:42:28.747Z,13.05
2024-02-17T15:46:30.536Z,12.65
2024-02-17T15:50:32.531Z,12.38
2024-02-17T15:54:34.352Z,10.68
2024-02-17T15:58:36.121Z,10.93
2024-02-17T16:02:38.944Z,13.00
2024-02-17T16:06:43.231Z,11.60
2024-02-17T16:10:45.113Z,14.13
2024-02-17T16:14:46.853Z,10.95
2024-02-17T16:18:51.362Z,12.95
2024-02-17T16:22:53.345Z,13.98
2024-02-17T16:26:55.127Z,12.60
2024-02-17T16:30:57.421Z,10.55
2024-02-17T16:34:59.350Z,12.27
2024-02-17T16:39:05.509Z,13.18
2024-02-17T16:43:07.661Z,12.15
2024-02-17T16:47:12.745Z,9.55
2024-02-17T16:51:14.652Z,7.88
2024-02-17T16:55:16.485Z,8.70
2024-02-17T16:59:18.361Z,9.38
2024-02-17T17:03:21.814Z,8.65
2024-02-17T17:07:23.898Z,9.15
2024-02-17T17:11:26.342Z,13.35
2024-02-17T17:15:28.178Z,9.32
2024-02-17T17:19:30.693Z,12.88
2024-02-17T17:23:32.997Z,10.48
2024-02-17T17:27:35.748Z,10.70
2024-02-17T17:31:37.725Z,10.90
2024-02-17T17:35:39.502Z,10.23
2024-02-17T17:39:41.371Z,11.45
2024-02-17T17:43:43.203Z,10.45
2024-02-17T17:47:45.012Z,9.88
2024-02-17T17:51:47.783Z,11.32
2024-02-17T17:55:50.077Z,10.10
2024-02-17T17:59:53.260Z,11.90
2024-02-17T18:03:55.759Z,13.85
2024-02-17T18:07:59.450Z,12.30
2024-02-17T18:12:01.176Z,12.55
2024-02-17T18:16:03.998Z,13.23
2024-02-17T18:20:07.073Z,14.77
2024-02-17T18:24:08.891Z,13.52
2024-02-17T18:28:10.803Z,12.80
2024-02-17T18:32:12.667Z,13.57
2024-02-17T18:36:18.463Z,14.65
2024-02-17T18:40:20.366Z,14.85
2024-02-17T18:44:23.176Z,15.25
2024-02-17T18:48:25.142Z,16.45
2024-02-17T18:52:29.424Z,12.75
2024-02-17T18:56:31.285Z,14.20
2024-02-17T19:00:33.113Z,16.58
2024-02-17T19:04:34.936Z,14.55
2024-02-17T19:08:36.677Z,15.55
2024-02-17T19:12:38.440Z,16.25
2024-02-17T19:16:40.359Z,17.45
2024-02-17T19:20:42.349Z,16.35
2024-02-17T19:24:44.281Z,19.58
2024-02-17T19:28:46.111Z,14.50
2024-02-17T19:32:48.496Z,20.48
2024-02-17T19:36:50.254Z,21.27
2024-02-17T19:40:51.997Z,17.35
2024-02-17T19:44:53.733Z,19.70
2024-02-17T19:48:56.172Z,20.05
2024-02-17T19:52:58.023Z,14.77
2024-02-17T20:02:23.746Z,18.13
2024-02-17T20:06:59.484Z,17.65
2024-02-17T20:11:01.998Z,15.68
2024-02-17T20:15:04.358Z,15.23
2024-02-17T20:19:06.559Z,18.33
2024-02-17T20:23:08.421Z,15.18
2024-02-17T20:27:11.240Z,18.13
2024-02-17T20:31:13.087Z,14.93
2024-02-17T20:35:14.971Z,16.45
2024-02-17T20:39:16.937Z,13.23
2024-02-17T20:43:18.669Z,16.02
2024-02-17T20:47:20.434Z,13.73
2024-02-17T20:51:22.318Z,15.73
2024-02-17T20:55:24.114Z,17.45
2024-02-17T20:59:26.716Z,14.65
2024-02-17T21:03:28.576Z,16.00
2024-02-17T21:07:30.367Z,13.60
2024-02-17T21:11:32.233Z,11.73
2024-02-17T21:15:34.142Z,15.50
2024-02-17T21:19:39.011Z,13.93
2024-02-17T21:23:40.941Z,11.23
2024-02-17T21:27:42.790Z,15.02
2024-02-17T21:31:44.653Z,16.45
2024-02-17T21:35:48.515Z,15.40
2024-02-17T21:39:51.781Z,8.65
2024-02-17T21:43:53.616Z,10.68
2024-02-17T21:47:55.600Z,8.45
2024-02-17T21:51:57.531Z,12.63
2024-02-17T21:55:59.363Z,14.88
2024-02-17T22:00:01.229Z,7.85
2024-02-17T22:04:03.191Z,14.20
2024-02-17T22:08:06.006Z,11.88
2024-02-17T22:12:07.807Z,14.13
2024-02-17T22:16:09.652Z,10.15
2024-02-17T22:20:13.653Z,11.63
2024-02-17T22:24:18.489Z,11.00
2024-02-17T22:28:20.356Z,10.13
2024-02-17T22:32:22.212Z,8.48
2024-02-17T22:36:23.994Z,10.73
2024-02-17T22:40:28.374Z,11.77
2024-02-17T22:44:30.161Z,8.10
2024-02-17T22:48:32.161Z,10.13
2024-02-17T22:52:34.262Z,8.70
2024-02-17T23:01:58.445Z,13.07
2024-02-17T23:06:00.666Z,13.30
2024-02-17T23:10:02.491Z,11.82
2024-02-17T23:14:04.919Z,11.98
2024-02-17T23:18:06.996Z,10.70
2024-02-17T23:22:09.013Z,8.55
2024-02-17T23:26:11.143Z,9.70
2024-02-17T23:30:45.067Z,9.48
2024-02-17T23:40:14.441Z,10.40
2024-02-17T23:44:17.620Z,9.20
2024-02-17T23:48:19.483Z,9.27
2024-02-17T23:52:21.378Z,15.02
2024-02-17T23:56:23.087Z,8.02
